Time;durP1;ratioP1;P1;durP2;ratioP2;P2;SDS_P1;SDS_P2;PMS_P1;PMS_P2;Temp;Humidity;BMP_temperature;BMP_pressure;BME280_temperature;BME280_humidity;BME280_pressure;Samples;Min_cycle;Max_cycle;Signal;HPM_P1;HPM_P2
2023/10/01 00:01:43;;;;;;;16.27;7.20;;;;;;;10.79;100.00;102179.94;4981220;28;20051;-67
2023/10/01 00:04:10;;;;;;;13.95;8.02;;;;;;;10.80;100.00;102185.97;4963351;28;20088;-68
2023/10/01 00:06:36;;;;;;;13.55;7.85;;;;;;;10.80;100.00;102178.19;4961405;28;20118;-67
2023/10/01 00:09:05;;;;;;;15.48;8.07;;;;;;;10.80;100.00;102188.59;4965724;28;20177;-67
2023/10/01 00:11:32;;;;;;;14.70;8.50;;;;;;;10.78;100.00;102186.09;4965637;28;20135;-67
2023/10/01 00:13:59;;;;;;;17.17;8.65;;;;;;;10.76;100.00;102179.41;4962813;28;20081;-67
2023/10/01 00:16:25;;;;;;;14.82;7.50;;;;;;;10.70;100.00;102176.34;4963563;28;20034;-67
2023/10/01 00:18:51;;;;;;;17.15;8.23;;;;;;;10.68;100.00;102180.84;4960732;28;20540;-67
2023/10/01 00:21:17;;;;;;;15.43;8.55;;;;;;;10.66;100.00;102174.94;4968213;28;20035;-67
2023/10/01 00:23:43;;;;;;;14.40;8.30;;;;;;;10.66;100.00;102180.13;4971459;28;20417;-67
2023/10/01 00:26:10;;;;;;;19.10;8.15;;;;;;;10.66;100.00;102167.16;4963067;28;20039;-67
2023/10/01 00:28:37;;;;;;;19.75;8.88;;;;;;;10.65;100.00;102167.28;4966518;28;20142;-67
2023/10/01 00:31:02;;;;;;;17.00;8.65;;;;;;;10.64;100.00;102174.25;4963602;28;20034;-66
2023/10/01 00:33:28;;;;;;;16.30;8.43;;;;;;;10.64;100.00;102170.81;4964281;28;20039;-67
2023/10/01 00:35:56;;;;;;;15.40;8.82;;;;;;;10.64;100.00;102171.66;4979533;28;20039;-67
2023/10/01 00:38:22;;;;;;;14.90;7.93;;;;;;;10.65;100.00;102167.28;4967219;28;20070;-67
2023/10/01 00:40:49;;;;;;;14.50;7.93;;;;;;;10.65;100.00;102173.28;4966891;28;20123;-67
2023/10/01 00:43:15;;;;;;;20.67;8.25;;;;;;;10.65;100.00;102168.09;4948116;28;20573;-66
2023/10/01 00:45:41;;;;;;;16.73;8.10;;;;;;;10.71;100.00;102167.59;4982580;28;20088;-67
2023/10/01 00:48:14;;;;;;;15.85;8.18;;;;;;;10.68;100.00;102170.47;4966441;28;20058;-67
2023/10/01 00:50:41;;;;;;;15.95;7.95;;;;;;;10.66;100.00;102164.56;4979867;28;20066;-67
2023/10/01 00:53:09;;;;;;;15.75;8.25;;;;;;;10.66;100.00;102168.91;4967029;28;20050;-67
2023/10/01 00:55:34;;;;;;;18.30;8.38;;;;;;;10.66;100.00;102166.31;4964179;28;20054;-67
2023/10/01 00:58:00;;;;;;;17.13;8.07;;;;;;;10.67;100.00;102160.19;4967923;28;20089;-67
2023/10/01 01:00:26;;;;;;;15.63;8.23;;;;;;;10.67;100.00;102160.19;4965432;28;20513;-67
2023/10/01 01:03:05;;;;;;;15.50;7.82;;;;;;;10.68;100.00;102169.63;4955631;28;20049;-67
2023/10/01 01:05:37;;;;;;;13.95;8.40;;;;;;;10.70;100.00;102159.97;4987844;28;20039;-67
2023/10/01 01:08:20;;;;;;;16.10;7.97;;;;;;;10.70;100.00;102157.38;4962885;28;20041;-67
2023/10/01 01:10:49;;;;;;;15.73;8.25;;;;;;;10.68;100.00;102152.28;4971082;28;20058;-67
2023/10/01 01:13:16;;;;;;;14.13;8.02;;;;;;;10.66;100.00;102154.19;4986989;28;20054;-67
2023/10/01 01:15:45;;;;;;;14.73;7.80;;;;;;;10.66;100.00;102156.78;4977302;28;20082;-67
2023/10/01 01:18:13;;;;;;;20.98;8.10;;;;;;;10.65;100.00;102157.72;4953603;28;20042;-67
2023/10/01 01:20:45;;;;;;;14.88;7.50;;;;;;;10.65;100.00;102154.31;4971014;28;20047;-67
2023/10/01 01:23:18;;;;;;;14.57;7.63;;;;;;;10.63;100.00;102148.44;4955872;28;20042;-67
2023/10/01 01:25:51;;;;;;;16.73;7.40;;;;;;;10.63;100.00;102156.22;4989251;28;20048;-67
2023/10/01 01:28:24;;;;;;;14.93;6.85;;;;;;;10.61;100.00;102153.72;4954845;28;20085;-67
2023/10/01 01:30:53;;;;;;;15.48;7.15;;;;;;;10.62;100.00;102145.00;4970882;28;20049;-67
2023/10/01 01:33:26;;;;;;;19.58;7.22;;;;;;;10.63;100.00;102145.84;4968211;28;20065;-67
2023/10/01 01:35:54;;;;;;;;;;;;;;;10.62;100.00;102147.59;4972761;28;20034;-67
2023/10/01 01:38:23;;;;;;;14.27;6.10;;;;;;;10.63;100.00;102138.88;4966931;28;19929;-67
2023/10/01 01:40:51;;;;;;;12.35;6.30;;;;;;;10.63;100.00;102132.88;4962617;28;20437;-67
2023/10/01 01:43:21;;;;;;;15.25;6.65;;;;;;;10.63;100.00;102133.69;4971829;28;20049;-67
2023/10/01 01:45:54;;;;;;;13.05;6.05;;;;;;;10.62;100.00;102132.03;4987204;28;20041;-67
2023/10/01 01:48:30;;;;;;;13.57;6.47;;;;;;;10.62;100.00;102129.41;4983732;28;20031;-67
2023/10/01 01:51:00;;;;;;;10.88;6.15;;;;;;;10.61;100.00;102121.78;4975300;28;20778;-67
2023/10/01 01:53:34;;;;;;;12.80;5.75;;;;;;;10.61;100.00;102129.56;4985296;28;20046;-67
2023/10/01 01:56:04;;;;;;;11.25;5.82;;;;;;;10.61;100.00;102124.38;4968087;28;20039;-67
2023/10/01 01:58:32;;;;;;;10.32;5.80;;;;;;;10.60;100.00;102127.91;4970609;28;20537;-67
2023/10/01 02:01:08;;;;;;;14.57;6.47;;;;;;;10.59;100.00;102134.06;4986631;28;20046;-67
2023/10/01 02:03:44;;;;;;;11.98;6.28;;;;;;;10.57;100.00;102129.00;4968240;28;20039;-67
2023/10/01 02:06:10;;;;;;;10.70;5.78;;;;;;;10.56;100.00;102121.34;4954525;28;20031;-67
2023/10/01 02:08:48;;;;;;;12.10;5.70;;;;;;;10.56;100.00;102126.50;4969289;28;20073;-67
2023/10/01 02:11:14;;;;;;;13.65;5.65;;;;;;;10.55;100.00;102128.28;4951815;28;20058;-67
2023/10/01 02:13:40;;;;;;;16.33;6.18;;;;;;;10.54;100.00;102118.03;4969930;28;20043;-67
2023/10/01 02:19:17;;;;;;;13.90;5.88;;;;;;;10.54;100.00;102118.84;4983719;28;20045;-67
2023/10/01 02:22:00;;;;;;;15.20;4.95;;;;;;;10.52;100.00;102112.97;4973260;28;20089;-67
2023/10/01 02:27:19;;;;;;;11.07;4.90;;;;;;;10.49;100.00;102115.81;4981713;28;20085;-67
2023/10/01 02:32:33;;;;;;;7.47;4.40;;;;;;;10.49;100.00;102118.41;4971711;28;20583;-67
2023/10/01 02:34:58;;;;;;;11.38;4.93;;;;;;;10.50;100.00;102120.88;4983483;28;20047;-67
2023/10/01 02:37:35;;;;;;;10.43;4.75;;;;;;;10.48;100.00;102102.03;4968670;28;20485;-67
2023/10/01 02:40:13;;;;;;;10.63;4.80;;;;;;;10.48;100.00;102106.38;4974255;28;20504;-67
2023/10/01 02:42:39;;;;;;;10.20;4.50;;;;;;;10.46;100.00;102103.91;4980334;28;20035;-67
2023/10/01 02:45:30;;;;;;;13.88;5.30;;;;;;;10.46;100.00;102101.31;4969399;28;20404;-67
2023/10/01 02:48:13;;;;;;;8.68;4.57;;;;;;;10.45;100.00;102098.84;4978567;28;20056;-67
2023/10/01 02:50:36;;;;;;;11.60;4.78;;;;;;;10.45;100.00;102102.28;4964488;28;20038;-67
2023/10/01 02:53:03;;;;;;;10.43;4.90;;;;;;;10.49;100.00;102102.84;4968709;28;20046;-67
2023/10/01 02:55:31;;;;;;;11.07;5.28;;;;;;;10.44;100.00;102100.63;4981597;28;20062;-67
2023/10/01 02:58:02;;;;;;;13.43;4.65;;;;;;;10.43;100.00;102098.16;4985156;28;20038;-67
2023/10/01 03:00:31;;;;;;;11.20;4.78;;;;;;;10.42;100.00;102107.72;4969309;28;20444;-67
2023/10/01 03:02:59;;;;;;;10.52;4.80;;;;;;;10.39;100.00;102104.53;4978251;28;20070;-67
2023/10/01 03:05:31;;;;;;;8.32;4.32;;;;;;;10.36;100.00;102104.75;4964014;28;20038;-67
2023/10/01 03:07:58;;;;;;;10.05;4.93;;;;;;;10.33;100.00;102096.28;4967252;28;20062;-67
2023/10/01 03:10:26;;;;;;;13.25;4.80;;;;;;;10.31;100.00;102099.97;4966700;28;20050;-67
2023/10/01 03:12:53;;;;;;;11.70;4.82;;;;;;;10.30;100.00;102103.47;4984134;28;20042;-67
2023/10/01 03:15:29;;;;;;;9.82;4.72;;;;;;;10.28;100.00;102107.94;4968512;28;20549;-67
2023/10/01 03:18:06;;;;;;;10.95;5.30;;;;;;;10.29;100.00;102105.22;4951249;28;20407;-67
2023/10/01 03:23:10;;;;;;;14.30;5.70;;;;;;;10.27;100.00;102109.72;4962870;28;20051;-67
2023/10/01 03:25:42;;;;;;;12.13;5.63;;;;;;;10.26;100.00;102113.25;4984465;28;20043;-67
2023/10/01 03:28:27;;;;;;;13.45;5.97;;;;;;;10.25;100.00;102111.63;4966220;28;21051;-67
2023/10/01 03:31:01;;;;;;;13.57;6.28;;;;;;;10.22;100.00;102105.84;4982106;28;20389;-67
2023/10/01 03:33:30;;;;;;;10.00;4.72;;;;;;;10.22;100.00;102119.63;4978671;28;20141;-67
2023/10/01 03:35:57;;;;;;;11.52;5.60;;;;;;;10.22;100.00;102116.22;4969075;28;20484;-67
2023/10/01 03:38:24;;;;;;;12.63;5.68;;;;;;;10.20;100.00;102124.09;4966350;28;20041;-67
2023/10/01 03:41:07;;;;;;;9.48;5.30;;;;;;;10.20;100.00;102120.69;4967987;28;20043;-67
2023/10/01 03:43:35;;;;;;;11.95;6.22;;;;;;;10.19;100.00;102122.47;4967275;28;20086;-67
2023/10/01 03:48:57;;;;;;;12.45;5.55;;;;;;;10.16;100.00;102117.53;4965010;28;20046;-67
2023/10/01 03:54:13;;;;;;;14.77;5.97;;;;;;;10.22;100.00;102124.81;4962206;28;20824;-67
2023/10/01 03:56:43;;;;;;;14.63;6.65;;;;;;;10.30;100.00;102119.00;4947880;28;20510;-67
2023/10/01 03:59:15;;;;;;;16.00;6.95;;;;;;;10.21;100.00;102118.00;4980595;28;20077;-67
2023/10/01 04:02:00;;;;;;;19.33;6.97;;;;;;;10.14;100.00;102120.22;4978989;28;20078;-67
2023/10/01 04:04:31;;;;;;;14.88;7.22;;;;;;;10.10;100.00;102115.41;4979414;28;20042;-67
2023/10/01 04:07:02;;;;;;;18.23;6.63;;;;;;;10.10;100.00;102118.00;4971755;28;20041;-67
2023/10/01 04:09:28;;;;;;;15.48;7.13;;;;;;;10.07;100.00;102119.06;4963361;28;20042;-67
2023/10/01 04:12:18;;;;;;;10.77;5.70;;;;;;;10.06;100.00;102114.84;4966705;28;20023;-67
2023/10/01 04:14:46;;;;;;;14.18;5.63;;;;;;;10.06;100.00;102119.19;4968424;28;20848;-67
2023/10/01 04:17:13;;;;;;;12.77;5.80;;;;;;;10.06;100.00;102116.63;4965498;28;20517;-67
2023/10/01 04:19:40;;;;;;;13.65;6.25;;;;;;;10.05;100.00;102113.16;4971151;28;21493;-67
2023/10/01 04:22:07;;;;;;;15.57;6.72;;;;;;;10.05;100.00;102126.13;4977295;28;20087;-67
2023/10/01 04:24:32;;;;;;;10.43;5.55;;;;;;;10.03;100.00;102117.66;4959955;28;20417;-67
2023/10/01 04:27:18;;;;;;;12.27;5.80;;;;;;;10.02;100.00;102115.19;4949923;28;20043;-67
2023/10/01 04:29:57;;;;;;;11.95;5.38;;;;;;;9.98;100.00;102109.41;4964845;28;20030;-67
2023/10/01 04:32:27;;;;;;;10.68;5.30;;;;;;;9.96;100.00;102115.66;4966368;28;20528;-67
2023/10/01 04:34:59;;;;;;;13.32;6.25;;;;;;;9.93;100.00;102114.97;4970011;28;20043;-67
2023/10/01 04:37:37;;;;;;;10.55;5.25;;;;;;;9.93;100.00;102122.75;4969841;28;20046;-67
2023/10/01 04:42:50;;;;;;;17.50;6.20;;;;;;;9.90;100.00;102116.97;4971668;28;20055;-67
2023/10/01 04:45:25;;;;;;;15.27;6.25;;;;;;;9.88;100.00;102121.44;4976112;28;20060;-67
2023/10/01 04:48:00;;;;;;;9.50;4.85;;;;;;;9.86;100.00;102112.97;4970748;28;20053;-67
2023/10/01 04:50:27;;;;;;;12.50;5.05;;;;;;;9.84;100.00;102112.28;4971299;28;20133;-67
2023/10/01 04:52:58;;;;;;;12.65;5.40;;;;;;;9.84;100.00;102114.88;4971436;28;20048;-67
2023/10/01 04:55:30;;;;;;;12.43;5.78;;;;;;;9.83;100.00;102123.56;4965602;28;20030;-67
2023/10/01 04:57:57;;;;;;;11.10;5.80;;;;;;;9.82;100.00;102117.56;4970004;28;20050;-67
2023/10/01 05:00:24;;;;;;;15.07;5.78;;;;;;;9.81;100.00;102115.09;4964757;28;20046;-67
2023/10/01 05:02:51;;;;;;;14.25;5.35;;;;;;;9.79;100.00;102120.38;4966704;28;20532;-67
2023/10/01 05:05:26;;;;;;;14.15;6.00;;;;;;;9.80;100.00;102129.00;4972899;28;20045;-67
2023/10/01 05:07:56;;;;;;;11.20;5.53;;;;;;;9.80;100.00;102129.00;4969892;28;20562;-67
2023/10/01 05:10:22;;;;;;;12.27;5.03;;;;;;;9.80;100.00;102124.63;4967529;28;20069;-67
2023/10/01 05:12:54;;;;;;;13.07;5.45;;;;;;;9.80;100.00;102123.81;4972078;28;20042;-67
2023/10/01 05:15:34;;;;;;;16.20;5.83;;;;;;;9.80;100.00;102126.41;4971931;28;20053;-67
2023/10/01 05:18:04;;;;;;;12.25;5.60;;;;;;;9.81;100.00;102130.63;4967668;28;20077;-67
2023/10/01 05:20:31;;;;;;;10.82;5.88;;;;;;;9.82;100.00;102127.13;4972052;28;20520;-67
2023/10/01 05:22:58;;;;;;;10.00;5.03;;;;;;;9.83;100.00;102118.38;4962729;28;20746;-67
2023/10/01 05:25:26;;;;;;;14.75;6.18;;;;;;;9.83;100.00;102110.59;4973165;28;20041;-67
2023/10/01 05:27:58;;;;;;;11.90;5.75;;;;;;;9.82;100.00;102117.56;4969725;28;20161;-67
2023/10/01 05:30:42;;;;;;;8.77;5.18;;;;;;;9.80;100.00;102113.47;4970237;28;20070;-67
2023/10/01 05:33:11;;;;;;;11.20;5.28;;;;;;;9.76;100.00;102115.47;4982425;28;20452;-67
2023/10/01 05:35:43;;;;;;;11.70;5.20;;;;;;;9.75;100.00;102114.63;4950688;28;20616;-67
2023/10/01 05:38:10;;;;;;;8.77;4.88;;;;;;;9.73;100.00;102120.88;4974555;28;20092;-67
2023/10/01 05:40:40;;;;;;;12.90;5.38;;;;;;;9.70;100.00;102127.13;4974816;28;20077;-67
2023/10/01 05:43:13;;;;;;;11.70;5.20;;;;;;;9.69;100.00;102125.44;4968230;28;20378;-67
2023/10/01 05:45:41;;;;;;;13.88;6.13;;;;;;;9.69;100.00;102132.41;4972218;28;20038;-67
2023/10/01 05:48:18;;;;;;;11.93;5.30;;;;;;;9.69;100.00;102127.22;4969457;28;20040;-67
2023/10/01 05:50:45;;;;;;;10.90;5.15;;;;;;;9.71;100.00;102131.34;4985401;28;20034;-66
2023/10/01 05:53:10;;;;;;;10.45;5.72;;;;;;;9.72;100.00;102135.59;4974521;28;20040;-67
2023/10/01 05:55:40;;;;;;;14.85;6.10;;;;;;;9.74;100.00;102131.13;4983332;28;20057;-67
2023/10/01 05:58:16;;;;;;;11.25;6.13;;;;;;;9.79;100.00;102124.75;4970046;28;20042;-67
2023/10/01 06:00:53;;;;;;;12.10;5.30;;;;;;;9.81;100.00;102125.44;4971012;28;20035;-67
2023/10/01 06:03:19;;;;;;;12.75;5.40;;;;;;;9.81;100.00;102128.84;4983879;28;20191;-67
2023/10/01 06:05:57;;;;;;;13.75;5.65;;;;;;;9.81;100.00;102128.03;4971997;28;20517;-67
2023/10/01 06:08:32;;;;;;;16.17;6.43;;;;;;;9.91;100.00;102124.63;4969443;28;20049;-66
2023/10/01 06:11:05;;;;;;;12.88;5.32;;;;;;;9.93;100.00;102121.94;4980176;28;20049;-67
2023/10/01 06:13:35;;;;;;;;;;;;;;;9.92;100.00;102117.66;4969531;28;20543;-67
2023/10/01 06:16:15;;;;;;;15.45;5.30;;;;;;;9.91;100.00;102121.22;4983214;28;19930;-67
2023/10/01 06:18:51;;;;;;;10.40;5.03;;;;;;;9.92;100.00;102122.84;4978908;28;20045;-67
2023/10/01 06:21:18;;;;;;;14.20;5.50;;;;;;;9.96;100.00;102116.47;4970827;28;20129;-67
2023/10/01 06:23:50;;;;;;;17.92;5.78;;;;;;;10.00;100.00;102119.66;4970013;28;20043;-67
2023/10/01 06:26:20;;;;;;;14.32;6.28;;;;;;;10.10;100.00;102118.00;4968099;28;20034;-66
2023/10/01 06:28:47;;;;;;;15.25;6.68;;;;;;;10.17;100.00;102126.13;4969982;28;20046;-67
2023/10/01 06:31:16;;;;;;;13.90;6.35;;;;;;;10.34;100.00;102123.06;4968921;28;20129;-67
2023/10/01 06:33:44;;;;;;;12.85;5.88;;;;;;;10.58;100.00;102132.41;4970161;28;20043;-67
2023/10/01 06:36:16;;;;;;;15.77;5.57;;;;;;;10.98;100.00;102132.59;4967263;28;20043;-67
2023/10/01 06:38:47;;;;;;;37.03;15.27;;;;;;;11.44;100.00;102126.16;4967206;28;20509;-67
2023/10/01 06:41:19;;;;;;;15.75;6.97;;;;;;;11.83;100.00;102118.53;4968195;28;20117;-67
2023/10/01 06:43:48;;;;;;;16.05;5.30;;;;;;;12.23;100.00;102109.06;4966654;28;20515;-67
2023/10/01 06:46:34;;;;;;;10.25;4.90;;;;;;;12.69;100.00;102112.75;4983453;28;20030;-67
2023/10/01 06:49:01;;;;;;;13.48;5.32;;;;;;;12.97;99.37;102120.69;4965520;28;20137;-67
2023/10/01 06:51:37;;;;;;;16.10;5.35;;;;;;;13.52;97.56;102118.22;4966078;28;20057;-67
2023/10/01 06:54:05;;;;;;;17.83;5.63;;;;;;;13.91;93.75;102123.25;4970350;28;20046;-69
2023/10/01 06:56:34;;;;;;;11.02;5.10;;;;;;;14.24;92.37;102121.03;4967883;28;20037;-67
2023/10/01 07:01:35;;;;;;;17.13;5.55;;;;;;;14.92;87.35;102112.66;4963146;28;20050;-67
2023/10/01 07:04:05;;;;;;;11.93;4.97;;;;;;;15.34;86.29;102111.91;4969552;28;20383;-67
2023/10/01 07:06:36;;;;;;;11.02;4.80;;;;;;;15.71;85.17;102115.19;4970892;28;20717;-67
2023/10/01 07:09:24;;;;;;;11.63;5.30;;;;;;;15.99;83.55;102112.34;4965877;28;20046;-67
2023/10/01 07:11:57;;;;;;;13.85;6.03;;;;;;;16.21;79.98;102119.59;4973255;28;20051;-67
2023/10/01 07:14:38;;;;;;;14.38;6.00;;;;;;;16.43;78.90;102123.38;4969611;28;20834;-67
2023/10/01 07:17:08;;;;;;;13.73;4.88;;;;;;;16.64;77.96;102119.47;4969176;28;20108;-67
2023/10/01 07:19:37;;;;;;;11.80;5.10;;;;;;;16.72;77.41;102117.66;4986884;28;20675;-67
2023/10/01 07:22:06;;;;;;;14.68;4.90;;;;;;;16.80;77.68;102108.16;4972859;28;20034;-67
2023/10/01 07:24:33;;;;;;;13.48;5.43;;;;;;;17.08;78.02;102122.56;4969792;28;20046;-67
2023/10/01 07:27:06;;;;;;;11.88;5.28;;;;;;;17.56;75.24;102116.53;4971281;28;20039;-68
2023/10/01 07:29:35;;;;;;;17.43;6.13;;;;;;;17.81;74.82;102118.03;4970796;28;20034;-67
2023/10/01 07:32:08;;;;;;;13.90;5.45;;;;;;;18.00;73.41;102116.00;4967336;28;20030;-67
2023/10/01 07:34:39;;;;;;;16.05;5.57;;;;;;;17.98;73.49;102110.91;4966636;28;20037;-68
2023/10/01 07:37:08;;;;;;;15.10;5.20;;;;;;;18.33;72.21;102105.25;4967593;28;20055;-67
2023/10/01 07:39:36;;;;;;;14.50;5.97;;;;;;;18.33;71.91;102103.47;4965614;28;20062;-67
2023/10/01 07:42:04;;;;;;;18.23;5.78;;;;;;;18.41;71.17;102102.59;4971413;28;20043;-68
2023/10/01 07:44:35;;;;;;;14.40;5.40;;;;;;;18.81;70.00;102103.25;4953053;28;20066;-67
2023/10/01 07:47:02;;;;;;;17.77;5.28;;;;;;;18.97;70.02;102097.84;4968283;28;20026;-67
2023/10/01 07:49:46;;;;;;;20.77;5.68;;;;;;;19.19;69.62;102101.41;4965225;28;20046;-67
2023/10/01 07:52:18;;;;;;;16.42;5.32;;;;;;;19.57;69.25;102105.69;4967635;28;20039;-67
2023/10/01 07:54:48;;;;;;;19.10;5.53;;;;;;;19.47;69.35;102108.59;4972998;28;20053;-67
2023/10/01 07:57:28;;;;;;;11.85;5.38;;;;;;;19.68;67.43;102110.47;4966640;28;20042;-68
2023/10/01 07:59:55;;;;;;;11.68;5.10;;;;;;;19.82;67.53;102106.22;4965140;28;20043;-68
2023/10/01 08:02:21;;;;;;;16.35;5.53;;;;;;;19.85;66.21;102113.72;4950549;28;20045;-67
2023/10/01 08:07:22;;;;;;;20.15;6.30;;;;;;;20.09;65.80;102124.94;4968527;28;20035;-67
2023/10/01 08:09:52;;;;;;;15.63;5.65;;;;;;;20.18;65.47;102121.19;4964879;28;20039;-67
2023/10/01 08:17:47;;;;;;;16.15;6.40;;;;;;;20.98;64.26;102116.56;4964945;28;20042;-67
2023/10/01 08:20:21;;;;;;;18.88;5.38;;;;;;;21.05;64.92;102117.41;4963649;28;20737;-67
2023/10/01 08:25:42;;;;;;;12.68;5.13;;;;;;;21.39;64.04;102110.50;4964030;28;20064;-67
2023/10/01 08:30:39;;;;;;;15.57;5.22;;;;;;;21.76;62.84;102100.50;4967164;28;20193;-67
2023/10/01 08:33:32;;;;;;;15.32;6.10;;;;;;;21.68;62.44;102103.31;4974223;28;20047;-67
2023/10/01 08:36:01;;;;;;;19.52;6.03;;;;;;;21.76;61.19;102114.50;4978944;28;20042;-68
2023/10/01 08:38:36;;;;;;;18.38;5.95;;;;;;;21.71;62.11;102113.47;4964148;28;20061;-67
2023/10/01 08:41:05;;;;;;;14.48;6.22;;;;;;;21.84;62.69;102123.28;4968528;28;20046;-68
2023/10/01 08:43:35;;;;;;;12.40;5.40;;;;;;;22.10;63.17;102123.31;4969361;28;20046;-68
2023/10/01 08:46:15;;;;;;;19.20;6.60;;;;;;;22.20;64.12;102114.19;4958964;28;20551;-68
2023/10/01 08:48:43;;;;;;;18.92;7.28;;;;;;;22.15;62.49;102112.16;4968297;28;20042;-68
2023/10/01 08:51:11;;;;;;;20.55;6.90;;;;;;;22.51;60.72;102117.09;4971412;28;20034;-67
2023/10/01 08:53:42;;;;;;;18.65;7.15;;;;;;;22.52;60.41;102100.19;4966970;28;20046;-68
2023/10/01 08:56:13;;;;;;;20.58;7.25;;;;;;;22.45;60.17;102107.34;4965096;28;20061;-68
2023/10/01 08:58:50;;;;;;;17.20;6.57;;;;;;;22.69;59.99;102103.22;4957665;28;20035;-68
2023/10/01 09:01:20;;;;;;;20.33;6.97;;;;;;;22.54;60.96;102100.81;4958382;28;20198;-68
2023/10/01 09:03:49;;;;;;;19.80;7.55;;;;;;;22.58;60.27;102098.56;4968068;28;20402;-67
2023/10/01 09:06:25;;;;;;;14.98;6.63;;;;;;;22.51;61.41;102100.44;4967619;28;20035;-67
2023/10/01 09:08:55;;;;;;;20.83;7.75;;;;;;;22.53;60.58;102103.69;4973796;28;20053;-68
2023/10/01 09:11:47;;;;;;;16.50;7.03;;;;;;;22.34;61.97;102100.81;4971521;28;20421;-68
2023/10/01 09:14:20;;;;;;;15.48;7.15;;;;;;;22.27;60.96;102102.66;4966566;28;20045;-68
2023/10/01 09:16:49;;;;;;;20.38;7.90;;;;;;;22.18;63.30;102103.81;4966516;28;20031;-68
2023/10/01 09:19:37;;;;;;;18.75;7.45;;;;;;;22.14;62.22;102100.78;4966150;28;20023;-68
2023/10/01 09:22:08;;;;;;;16.10;6.97;;;;;;;21.92;63.42;102105.41;4985851;28;20033;-68
2023/10/01 09:24:38;;;;;;;16.25;6.78;;;;;;;21.80;64.53;102101.72;4964764;28;20659;-68
2023/10/01 09:27:09;;;;;;;17.45;7.57;;;;;;;21.86;64.10;102108.03;4971123;28;20027;-68
2023/10/01 09:29:43;;;;;;;16.33;6.63;;;;;;;21.79;65.35;102108.00;4963267;28;20116;-68
2023/10/01 09:32:13;;;;;;;21.77;7.45;;;;;;;21.65;65.99;102111.66;4972746;28;20043;-68
2023/10/01 09:34:46;;;;;;;17.65;7.25;;;;;;;21.72;67.25;102120.41;4972788;28;20672;-68
2023/10/01 09:37:34;;;;;;;17.83;7.47;;;;;;;21.82;66.71;102110.25;4970495;28;20054;-68
2023/10/01 09:40:32;;;;;;;17.83;7.15;;;;;;;21.89;66.88;102110.28;4978586;28;20050;-68
2023/10/01 09:43:03;;;;;;;16.80;6.35;;;;;;;21.78;67.27;102107.22;4953935;28;20039;-68
2023/10/01 09:45:37;;;;;;;18.25;7.68;;;;;;;21.76;67.54;102106.59;4967022;28;20122;-68
2023/10/01 09:48:05;;;;;;;16.90;7.57;;;;;;;21.83;66.70;102111.91;4973036;28;20042;-68
2023/10/01 09:50:44;;;;;;;17.77;7.57;;;;;;;21.73;68.64;102106.19;4982172;28;20063;-68
2023/10/01 09:53:15;;;;;;;20.23;7.40;;;;;;;21.72;66.08;102108.00;4971851;28;20058;-68
2023/10/01 09:55:55;;;;;;;17.88;7.40;;;;;;;21.81;66.72;102098.06;4968565;28;20571;-69
2023/10/01 09:58:25;;;;;;;16.35;6.75;;;;;;;21.71;67.35;102108.22;4972706;28;20034;-67
2023/10/01 10:00:55;;;;;;;20.35;8.15;;;;;;;21.72;67.69;102102.72;4967615;28;20042;-68
2023/10/01 10:03:21;;;;;;;18.10;7.53;;;;;;;21.86;67.42;102111.50;4974126;28;20552;-68
2023/10/01 10:05:48;;;;;;;20.05;7.68;;;;;;;21.77;68.37;102102.13;4970043;28;20038;-68
2023/10/01 10:08:20;;;;;;;18.10;7.95;;;;;;;21.69;68.62;102097.84;4972288;28;20493;-68
2023/10/01 10:10:52;;;;;;;28.23;8.20;;;;;;;21.69;70.39;102095.19;4969849;28;20041;-68
2023/10/01 10:13:46;;;;;;;15.60;6.70;;;;;;;21.77;70.08;102084.47;4971959;28;20054;-68
2023/10/01 10:19:15;;;;;;;18.60;6.93;;;;;;;22.00;69.13;102083.31;4974601;28;20031;-67
2023/10/01 10:24:29;;;;;;;20.95;7.40;;;;;;;22.04;67.78;102079.25;4971825;28;20042;-68
2023/10/01 10:26:56;;;;;;;20.77;7.78;;;;;;;22.05;69.35;102067.66;4978893;28;20058;-68
2023/10/01 10:29:42;;;;;;;23.00;7.05;;;;;;;22.08;66.70;102066.44;4967737;28;20038;-68
2023/10/01 10:32:11;;;;;;;13.98;6.07;;;;;;;22.13;67.41;102064.84;4967741;28;20038;-68
2023/10/01 10:34:36;;;;;;;21.05;7.47;;;;;;;22.12;66.17;102065.03;4979723;28;20035;-68
2023/10/01 10:37:06;;;;;;;20.67;7.45;;;;;;;22.10;66.48;102067.06;4989832;28;20039;-68
2023/10/01 10:40:02;;;;;;;20.65;7.55;;;;;;;21.93;66.43;102071.91;4973584;28;20043;-68
2023/10/01 10:42:28;;;;;;;18.73;6.53;;;;;;;22.04;66.92;102071.31;4977471;28;20702;-68
2023/10/01 10:45:19;;;;;;;19.23;7.57;;;;;;;22.13;67.61;102074.56;4969356;28;20112;-68
2023/10/01 10:48:03;;;;;;;18.98;7.45;;;;;;;22.34;66.83;102066.47;4992767;28;20502;-68
2023/10/01 10:50:44;;;;;;;17.65;7.20;;;;;;;22.51;64.63;102063.44;4969130;28;20081;-68
2023/10/01 10:53:20;;;;;;;19.02;8.13;;;;;;;22.63;65.24;102064.41;4968684;28;20416;-68
2023/10/01 10:56:10;;;;;;;17.38;6.78;;;;;;;22.56;64.89;102068.88;4970123;28;20039;-68
2023/10/01 10:58:40;;;;;;;21.33;7.70;;;;;;;22.46;65.73;102065.88;4962245;28;20126;-68
2023/10/01 11:01:15;;;;;;;18.67;6.72;;;;;;;22.57;65.70;102056.50;4968164;28;21011;-68
2023/10/01 11:03:56;;;;;;;18.80;6.28;;;;;;;22.63;64.87;102050.41;4967628;28;20043;-68
2023/10/01 11:06:29;;;;;;;17.77;6.60;;;;;;;22.60;65.04;102056.88;4970648;28;20096;-67
2023/10/01 11:08:56;;;;;;;17.55;7.22;;;;;;;22.54;66.05;102052.44;4966040;28;20050;-68
2023/10/01 11:11:30;;;;;;;20.58;7.43;;;;;;;22.53;67.40;102051.63;4987465;28;20042;-67
2023/10/01 11:14:01;;;;;;;20.52;8.35;;;;;;;22.67;66.06;102051.59;4970108;28;20521;-68
2023/10/01 11:16:33;;;;;;;23.00;9.48;;;;;;;22.64;65.64;102049.34;4969003;28;20048;-67
2023/10/01 11:19:14;;;;;;;21.20;7.22;;;;;;;22.74;66.51;102049.75;4971223;28;20518;-68
2023/10/01 11:21:59;;;;;;;16.58;7.40;;;;;;;22.76;65.61;102037.16;4987134;28;20045;-68
2023/10/01 11:24:30;;;;;;;20.25;8.10;;;;;;;22.56;66.52;102039.81;4968402;28;20045;-68
2023/10/01 11:27:43;;;;;;;20.10;8.27;;;;;;;22.72;65.40;102036.75;4969598;28;20453;-68
2023/10/01 11:30:19;;;;;;;18.73;7.40;;;;;;;22.81;65.18;102040.00;4973468;28;20035;-67
2023/10/01 11:32:58;;;;;;;22.20;8.20;;;;;;;22.85;62.32;102038.56;4969565;28;20113;-67
2023/10/01 11:35:33;;;;;;;20.08;8.07;;;;;;;22.84;64.28;102038.75;4967480;28;20046;-68
2023/10/01 11:38:19;;;;;;;21.08;7.82;;;;;;;22.88;62.36;102037.31;4965141;28;20056;-68
2023/10/01 11:43:58;;;;;;;16.17;6.97;;;;;;;22.99;62.67;102047.25;4972274;28;20183;-67
2023/10/01 11:49:34;;;;;;;23.08;8.45;;;;;;;23.25;61.62;102032.31;4933116;28;20049;-68
2023/10/01 11:52:21;;;;;;;24.08;8.10;;;;;;;23.05;61.61;102027.91;4967268;28;20042;-69
2023/10/01 11:54:53;;;;;;;20.95;7.57;;;;;;;22.97;63.98;102028.13;4972368;28;20159;-68
2023/10/01 11:57:23;;;;;;;18.80;7.55;;;;;;;23.19;61.04;102020.75;4964073;28;20042;-68
2023/10/01 11:59:56;;;;;;;23.83;10.18;;;;;;;23.30;62.33;102012.16;4976300;28;20034;-69
2023/10/01 12:02:26;;;;;;;21.23;7.80;;;;;;;23.37;61.08;102011.28;4978959;28;20047;-69
2023/10/01 12:04:58;;;;;;;21.75;8.48;;;;;;;23.44;58.44;102010.22;4968583;28;20063;-68
2023/10/01 12:07:27;;;;;;;19.95;8.77;;;;;;;23.32;60.54;102004.81;4969218;28;20699;-69
2023/10/01 12:09:54;;;;;;;22.08;8.52;;;;;;;23.37;60.14;101998.06;4969554;28;20043;-68
2023/10/01 12:12:28;;;;;;;17.73;8.10;;;;;;;23.22;60.49;102004.44;4980326;28;20073;-68
2023/10/01 12:15:33;;;;;;;17.25;7.57;;;;;;;23.17;60.22;101983.13;4969126;28;20039;-68
2023/10/01 12:17:44;;;;;;;16.05;7.72;;;;;;;23.40;59.36;101984.41;4971911;28;20053;-69
2023/10/01 12:20:22;;;;;;;25.52;9.38;;;;;;;23.54;59.10;101988.59;4962373;28;20041;-67
2023/10/01 12:25:45;;;;;;;22.27;8.50;;;;;;;23.66;58.23;101980.78;4974908;28;20055;-68
2023/10/01 12:28:15;;;;;;;16.83;8.30;;;;;;;23.57;59.55;101987.38;4968076;28;20059;-68